createdAt,value
2023-05-06T00:01:46.700Z,7.83
2023-05-06T00:04:33.721Z,7.78
2023-05-06T00:07:07.003Z,7.77
2023-05-06T00:10:00.633Z,7.71
2023-05-06T00:12:54.690Z,7.68
2023-05-06T00:15:41.675Z,7.64
2023-05-06T00:18:15.315Z,7.61
2023-05-06T00:21:01.615Z,7.59
2023-05-06T00:23:34.756Z,7.58
2023-05-06T00:26:22.615Z,7.55
2023-05-06T00:29:02.624Z,7.52
2023-05-06T00:31:49.648Z,7.48
2023-05-06T00:34:22.745Z,7.45
2023-05-06T00:37:09.632Z,7.44
2023-05-06T00:39:49.646Z,7.42
2023-05-06T00:42:36.668Z,7.39
2023-05-06T00:45:16.658Z,7.36
2023-05-06T00:48:04.684Z,7.33
2023-05-06T00:50:40.747Z,7.32
2023-05-06T00:53:30.625Z,7.29
2023-05-06T00:56:10.646Z,7.27
2023-05-06T00:59:04.640Z,7.24
2023-05-06T01:01:58.645Z,7.22
2023-05-06T01:04:52.687Z,7.21
2023-05-06T01:07:45.657Z,7.18
2023-05-06T01:10:40.753Z,7.16
2023-05-06T01:13:39.654Z,7.11
2023-05-06T01:16:22.674Z,7.10
2023-05-06T01:19:15.683Z,7.12
2023-05-06T01:21:59.682Z,7.13
2023-05-06T01:25:00.661Z,7.12
2023-05-06T01:27:54.656Z,7.14
2023-05-06T01:30:56.674Z,7.16
2023-05-06T01:33:56.668Z,7.09
2023-05-06T01:36:56.672Z,7.07
2023-05-06T01:39:36.780Z,7.03
2023-05-06T01:42:24.659Z,6.99
2023-05-06T01:44:59.813Z,6.98
2023-05-06T01:47:47.721Z,6.96
2023-05-06T01:50:21.781Z,6.94
2023-05-06T01:53:09.689Z,6.93
2023-05-06T01:55:42.776Z,6.95
2023-05-06T01:58:29.668Z,6.94
2023-05-06T02:01:02.776Z,6.89
2023-05-06T02:03:49.824Z,6.83
2023-05-06T02:06:22.805Z,6.77
2023-05-06T02:09:09.690Z,6.70
2023-05-06T02:11:42.814Z,6.65
2023-05-06T02:14:29.681Z,6.60
2023-05-06T02:17:03.588Z,6.58
2023-05-06T02:19:50.723Z,6.54
2023-05-06T02:22:23.788Z,6.52
2023-05-06T02:25:11.003Z,6.49
2023-05-06T02:27:51.707Z,6.47
2023-05-06T02:30:38.684Z,6.42
2023-05-06T02:33:11.779Z,6.40
2023-05-06T02:35:58.674Z,6.37
2023-05-06T02:38:32.786Z,6.36
2023-05-06T02:41:19.699Z,6.33
2023-05-06T02:43:52.777Z,6.30
2023-05-06T02:46:41.733Z,6.27
2023-05-06T02:49:14.777Z,6.23
2023-05-06T02:52:01.713Z,6.21
2023-05-06T02:54:41.694Z,6.16
2023-05-06T02:57:21.691Z,6.14
2023-05-06T03:00:01.696Z,6.12
2023-05-06T03:02:34.814Z,6.09
2023-05-06T03:05:21.723Z,6.07
2023-05-06T03:07:55.308Z,6.05
2023-05-06T03:10:41.724Z,6.04
2023-05-06T03:13:14.961Z,6.01
2023-05-06T03:16:01.678Z,6.00
2023-05-06T03:18:34.804Z,6.01
2023-05-06T03:21:21.744Z,6.00
2023-05-06T03:24:01.720Z,6.02
2023-05-06T03:26:48.690Z,6.02
2023-05-06T03:29:28.731Z,6.02
2023-05-06T03:32:15.705Z,6.02
2023-05-06T03:34:55.710Z,6.07
2023-05-06T03:37:42.711Z,6.14
2023-05-06T03:40:22.717Z,6.18
2023-05-06T03:43:16.723Z,6.22
2023-05-06T03:46:04.734Z,6.27
2023-05-06T03:48:37.798Z,6.26
2023-05-06T03:51:24.738Z,6.21
2023-05-06T03:53:57.818Z,6.20
2023-05-06T03:56:44.756Z,6.25
2023-05-06T03:59:17.851Z,6.29
2023-05-06T04:02:04.740Z,6.34
2023-05-06T04:04:38.075Z,6.36
2023-05-06T04:07:24.720Z,6.36
2023-05-06T04:09:57.920Z,6.34
2023-05-06T04:12:44.805Z,6.35
2023-05-06T04:15:24.728Z,6.40
2023-05-06T04:18:18.793Z,6.43
2023-05-06T04:21:06.722Z,6.50
2023-05-06T04:23:46.741Z,6.57
2023-05-06T04:26:40.722Z,6.68
2023-05-06T04:29:34.748Z,6.78
2023-05-06T04:32:23.725Z,6.90
2023-05-06T04:34:57.287Z,7.02
2023-05-06T04:37:43.730Z,7.19
2023-05-06T04:40:18.828Z,7.42
2023-05-06T04:43:05.855Z,7.68
2023-05-06T04:45:40.221Z,7.92
2023-05-06T04:48:30.752Z,8.17
2023-05-06T04:51:06.631Z,8.33
2023-05-06T04:53:53.773Z,8.47
2023-05-06T04:56:26.871Z,8.53
2023-05-06T04:59:13.771Z,8.63
2023-05-06T05:01:53.752Z,8.66
2023-05-06T05:04:47.754Z,8.72
2023-05-06T05:07:34.747Z,8.75
2023-05-06T05:10:12.066Z,8.82
2023-05-06T05:12:58.783Z,8.82
2023-05-06T05:15:38.755Z,8.82
2023-05-06T05:18:32.846Z,8.80
2023-05-06T05:21:19.789Z,8.81
2023-05-06T05:23:52.904Z,8.87
2023-05-06T05:26:39.733Z,8.92
2023-05-06T05:29:19.749Z,8.97
2023-05-06T05:32:13.806Z,9.03
2023-05-06T05:35:00.790Z,9.04
2023-05-06T05:37:33.881Z,9.13
2023-05-06T05:40:20.753Z,9.15
2023-05-06T05:42:53.937Z,9.18
2023-05-06T05:45:40.766Z,9.23
2023-05-06T05:48:20.807Z,9.41
2023-05-06T05:51:17.758Z,9.56
2023-05-06T05:54:11.812Z,9.69
2023-05-06T05:57:05.774Z,9.86
2023-05-06T05:59:59.782Z,9.99
2023-05-06T06:02:47.910Z,10.11
2023-05-06T06:05:21.027Z,10.28
2023-05-06T06:08:07.778Z,10.46
2023-05-06T06:10:41.937Z,10.54
2023-05-06T06:13:29.147Z,10.60
2023-05-06T06:16:03.961Z,10.57
2023-05-06T06:18:50.772Z,10.60
2023-05-06T06:21:30.776Z,10.74
2023-05-06T06:24:19.819Z,11.09
2023-05-06T06:26:59.796Z,11.50
2023-05-06T06:29:53.785Z,11.89
2023-05-06T06:32:40.836Z,12.24
2023-05-06T06:35:15.000Z,12.48
2023-05-06T06:38:01.780Z,12.84
2023-05-06T06:40:41.809Z,13.21
2023-05-06T06:43:35.812Z,13.59
2023-05-06T06:46:22.876Z,13.99
2023-05-06T06:48:55.898Z,14.39
2023-05-06T06:51:42.783Z,14.82
2023-05-06T06:54:15.899Z,15.15
2023-05-06T06:57:03.804Z,15.52
2023-05-06T06:59:36.910Z,15.88
2023-05-06T07:02:23.836Z,16.19
2023-05-06T07:05:03.836Z,16.54
2023-05-06T07:07:57.812Z,16.87
2023-05-06T07:10:51.805Z,17.25
2023-05-06T07:13:38.827Z,17.54
2023-05-06T07:16:18.848Z,17.83
2023-05-06T07:19:05.826Z,17.95
2023-05-06T07:21:45.808Z,18.07
2023-05-06T07:24:39.830Z,18.17
2023-05-06T07:27:36.815Z,18.39
2023-05-06T07:30:25.837Z,18.65
2023-05-06T07:32:59.015Z,18.89
2023-05-06T07:35:45.815Z,19.16
2023-05-06T07:38:25.822Z,19.43
2023-05-06T07:41:12.809Z,19.70
2023-05-06T07:43:52.815Z,19.86
2023-05-06T07:46:46.887Z,19.99
2023-05-06T07:49:34.825Z,20.29
2023-05-06T07:52:07.951Z,20.63
2023-05-06T07:54:54.856Z,20.99
2023-05-06T07:57:30.992Z,21.27
2023-05-06T08:00:18.841Z,21.44
2023-05-06T08:02:58.912Z,21.42
2023-05-06T08:05:52.854Z,21.46
2023-05-06T08:08:39.837Z,21.41
2023-05-06T08:11:12.960Z,21.66
2023-05-06T08:13:59.840Z,21.80
2023-05-06T08:16:33.021Z,21.90
2023-05-06T08:19:19.884Z,22.11
2023-05-06T08:21:54.166Z,22.01
2023-05-06T08:24:40.850Z,21.87
2023-05-06T08:27:13.936Z,21.71
2023-05-06T08:30:00.881Z,21.61
2023-05-06T08:32:33.972Z,21.66
2023-05-06T08:35:20.867Z,21.81
2023-05-06T08:37:53.982Z,22.18
2023-05-06T08:40:41.853Z,22.57
2023-05-06T08:43:20.022Z,22.95
2023-05-06T08:46:06.950Z,23.02
2023-05-06T08:48:46.938Z,23.17
2023-05-06T08:51:36.884Z,23.35
2023-05-06T08:54:17.863Z,23.11
2023-05-06T08:57:15.915Z,22.85
2023-05-06T09:00:09.882Z,22.62
2023-05-06T09:02:57.030Z,22.32
2023-05-06T09:05:30.049Z,22.04
2023-05-06T09:08:17.875Z,21.56
2023-05-06T09:10:53.015Z,21.19
2023-05-06T09:13:39.886Z,21.24
2023-05-06T09:16:13.070Z,21.53
2023-05-06T09:18:59.873Z,21.89
2023-05-06T09:21:43.105Z,22.44
2023-05-06T09:24:30.907Z,22.29
2023-05-06T09:27:04.429Z,22.07
2023-05-06T09:30:06.929Z,21.78
2023-05-06T09:32:42.085Z,21.92
2023-05-06T09:35:34.903Z,21.88
2023-05-06T09:38:14.887Z,21.84
2023-05-06T09:41:02.900Z,21.63
2023-05-06T09:43:37.596Z,21.24
2023-05-06T09:46:23.917Z,21.05
2023-05-06T09:49:05.921Z,20.92
2023-05-06T09:52:01.952Z,20.80
2023-05-06T09:54:49.926Z,20.67
2023-05-06T09:57:31.031Z,20.72
2023-05-06T10:00:19.917Z,20.77
2023-05-06T10:03:01.067Z,20.85
2023-05-06T10:05:54.913Z,20.95
2023-05-06T10:08:42.946Z,20.98
2023-05-06T10:11:22.911Z,21.24
2023-05-06T10:14:17.945Z,21.42
2023-05-06T10:17:05.971Z,21.94
2023-05-06T10:19:40.089Z,22.38
2023-05-06T10:22:51.953Z,22.33
2023-05-06T10:25:44.861Z,22.47
2023-05-06T10:28:31.971Z,22.51
2023-05-06T10:31:06.099Z,22.88
2023-05-06T10:33:57.936Z,23.26
2023-05-06T10:36:33.666Z,23.30
2023-05-06T10:39:20.930Z,23.59
2023-05-06T10:41:55.077Z,23.74
2023-05-06T10:45:04.939Z,22.67
2023-05-06T10:48:11.006Z,22.34
2023-05-06T10:51:04.967Z,22.07
2023-05-06T10:54:15.955Z,22.07
2023-05-06T10:57:10.004Z,21.88
2023-05-06T10:59:56.958Z,21.85
2023-05-06T11:02:37.123Z,21.76
2023-05-06T11:05:31.007Z,21.79
2023-05-06T11:08:18.000Z,21.59
2023-05-06T11:10:58.009Z,21.35
2023-05-06T11:13:44.990Z,21.31
2023-05-06T11:17:00.997Z,21.09
2023-05-06T11:19:50.967Z,20.91
2023-05-06T11:22:53.984Z,20.92
2023-05-06T11:25:54.989Z,20.76
2023-05-06T11:28:42.994Z,20.79
2023-05-06T11:31:24.008Z,20.86
2023-05-06T11:34:20.972Z,20.75
2023-05-06T11:37:21.041Z,20.73
2023-05-06T11:40:07.996Z,20.61
2023-05-06T11:42:48.005Z,20.45
2023-05-06T11:45:47.071Z,20.40
2023-05-06T11:48:27.975Z,20.34
2023-05-06T11:51:21.981Z,20.35
2023-05-06T11:54:16.991Z,20.24
2023-05-06T11:57:04.980Z,20.19
2023-05-06T11:59:58.993Z,20.03
2023-05-06T12:02:53.090Z,19.94
2023-05-06T12:05:41.014Z,19.87
2023-05-06T12:08:27.369Z,19.82
2023-05-06T12:11:23.001Z,19.74
2023-05-06T12:14:20.051Z,19.61
2023-05-06T12:17:07.011Z,19.58
2023-05-06T12:19:47.182Z,19.62
2023-05-06T12:22:33.994Z,19.67
2023-05-06T12:25:27.050Z,19.65
2023-05-06T12:28:24.070Z,19.67
2023-05-06T12:31:04.012Z,19.75
2023-05-06T12:34:01.039Z,19.80
2023-05-06T12:36:57.008Z,19.82
2023-05-06T12:39:45.014Z,19.90
2023-05-06T12:42:34.016Z,19.99
2023-05-06T12:45:21.006Z,20.05
2023-05-06T12:48:06.860Z,20.05
2023-05-06T12:50:54.015Z,20.05
2023-05-06T12:53:46.014Z,20.07
2023-05-06T12:56:40.062Z,20.05
2023-05-06T12:59:27.053Z,20.26
2023-05-06T13:02:01.273Z,20.33
2023-05-06T13:04:48.019Z,20.26
2023-05-06T13:07:22.514Z,20.19
2023-05-06T13:10:16.027Z,20.13
2023-05-06T13:13:10.186Z,20.09
2023-05-06T13:16:06.026Z,20.05
2023-05-06T13:19:00.046Z,19.93
2023-05-06T13:21:48.038Z,19.85
2023-05-06T13:24:21.395Z,19.82
2023-05-06T13:27:09.125Z,19.49
2023-05-06T13:29:42.185Z,19.16
2023-05-06T13:32:29.068Z,18.88
2023-05-06T13:35:04.471Z,18.65
2023-05-06T13:37:51.046Z,18.35
2023-05-06T13:40:24.186Z,18.05
2023-05-06T13:43:11.062Z,17.84
2023-05-06T13:45:46.905Z,17.63
2023-05-06T13:48:34.041Z,17.36
2023-05-06T13:51:07.616Z,17.21
2023-05-06T13:53:54.072Z,17.02
2023-05-06T13:56:34.087Z,16.79
2023-05-06T13:59:21.074Z,16.53
2023-05-06T14:01:55.922Z,16.44
2023-05-06T14:04:43.138Z,16.36
2023-05-06T14:07:16.190Z,16.27
2023-05-06T14:10:10.082Z,16.18
2023-05-06T14:12:58.085Z,16.13
2023-05-06T14:15:31.147Z,16.12
2023-05-06T14:18:18.078Z,16.11
2023-05-06T14:20:51.142Z,16.03
2023-05-06T14:23:39.100Z,15.99
2023-05-06T14:26:12.185Z,15.95
2023-05-06T14:28:59.082Z,15.89
2023-05-06T14:31:39.098Z,15.82
2023-05-06T14:34:26.079Z,15.71
2023-05-06T14:37:00.203Z,15.62
2023-05-06T14:39:47.073Z,15.51
2023-05-06T14:42:27.093Z,15.49
2023-05-06T14:45:22.088Z,15.49
2023-05-06T14:48:16.125Z,15.39
2023-05-06T14:51:03.086Z,15.34
2023-05-06T14:53:36.428Z,15.34
2023-05-06T14:56:23.101Z,15.28
2023-05-06T14:59:04.160Z,15.21
2023-05-06T15:01:58.130Z,15.19
2023-05-06T15:04:52.096Z,15.15
2023-05-06T15:07:46.095Z,15.15
2023-05-06T15:10:40.102Z,15.18
2023-05-06T15:13:27.130Z,15.14
2023-05-06T15:16:09.046Z,15.08
2023-05-06T15:19:04.115Z,15.04
2023-05-06T15:21:51.089Z,15.06
2023-05-06T15:24:24.287Z,15.06
2023-05-06T15:27:11.116Z,15.06
2023-05-06T15:29:52.105Z,15.02
2023-05-06T15:32:39.143Z,15.01
2023-05-06T15:35:20.322Z,15.00
2023-05-06T15:38:10.110Z,14.96
2023-05-06T15:40:52.150Z,14.92
2023-05-06T15:43:46.095Z,14.91
2023-05-06T15:46:41.201Z,14.93
2023-05-06T15:52:28.130Z,14.90
2023-05-06T15:55:08.097Z,14.93
2023-05-06T15:58:02.109Z,14.93
2023-05-06T16:00:50.108Z,14.87
2023-05-06T16:03:30.307Z,14.79
2023-05-06T16:06:25.126Z,14.74
2023-05-06T16:09:19.140Z,14.74
2023-05-06T16:12:16.192Z,14.80
2023-05-06T16:15:10.127Z,14.88
2023-05-06T16:18:05.229Z,14.94
2023-05-06T16:20:52.414Z,14.99
2023-05-06T16:23:33.127Z,15.04
2023-05-06T16:26:21.151Z,15.09
2023-05-06T16:29:01.150Z,15.10
2023-05-06T16:31:48.178Z,15.11
2023-05-06T16:34:22.242Z,15.08
2023-05-06T16:37:09.118Z,14.97
2023-05-06T16:39:49.150Z,14.88
2023-05-06T16:42:36.175Z,14.79
2023-05-06T16:45:09.296Z,14.75
2023-05-06T16:47:56.260Z,14.70
2023-05-06T16:50:29.356Z,14.71
2023-05-06T16:53:16.142Z,14.72
2023-05-06T16:56:03.540Z,14.73
2023-05-06T16:58:50.206Z,14.75
2023-05-06T17:01:30.189Z,14.70
2023-05-06T17:04:24.196Z,14.67
2023-05-06T17:07:11.459Z,14.63
2023-05-06T17:09:45.337Z,14.60
2023-05-06T17:12:33.158Z,14.57
2023-05-06T17:15:13.167Z,14.55
2023-05-06T17:18:00.265Z,14.55
2023-05-06T17:20:54.236Z,14.52
2023-05-06T17:23:36.196Z,14.50
2023-05-06T17:26:16.202Z,14.47
2023-05-06T17:28:57.212Z,14.47
2023-05-06T17:31:51.215Z,14.47
2023-05-06T17:34:45.170Z,14.43
2023-05-06T17:37:32.195Z,14.39
2023-05-06T17:40:07.109Z,14.37
2023-05-06T17:42:47.155Z,14.32
2023-05-06T17:45:28.602Z,14.29
2023-05-06T17:48:08.251Z,14.24
2023-05-06T17:50:49.147Z,14.19
2023-05-06T17:53:31.566Z,14.13
2023-05-06T17:56:11.235Z,14.08
2023-05-06T17:58:45.645Z,14.04
2023-05-06T18:01:32.255Z,13.98
2023-05-06T18:04:12.318Z,13.92
2023-05-06T18:06:59.200Z,13.84
2023-05-06T18:09:39.226Z,13.79
2023-05-06T18:12:33.218Z,13.72
2023-05-06T18:15:20.210Z,13.65
2023-05-06T18:18:00.255Z,13.58
2023-05-06T18:20:54.202Z,13.52
2023-05-06T18:23:41.292Z,13.50
2023-05-06T18:26:35.358Z,13.47
2023-05-06T18:29:28.204Z,13.43
2023-05-06T18:32:01.401Z,13.43
2023-05-06T18:34:48.204Z,13.40
2023-05-06T18:37:21.383Z,13.38
2023-05-06T18:40:08.222Z,13.36
2023-05-06T18:42:49.221Z,13.35
2023-05-06T18:45:44.238Z,13.35
2023-05-06T18:48:31.227Z,13.34
2023-05-06T18:51:28.237Z,13.35
2023-05-06T18:54:16.306Z,13.32
2023-05-06T18:56:51.058Z,13.32
2023-05-06T18:59:38.206Z,13.36
2023-05-06T19:02:24.245Z,13.37
2023-05-06T19:05:23.232Z,13.36
2023-05-06T19:08:12.220Z,13.33
2023-05-06T19:10:45.439Z,13.36
2023-05-06T19:13:33.244Z,13.30
2023-05-06T19:16:06.665Z,13.30
2023-05-06T19:18:54.217Z,13.29
2023-05-06T19:21:47.357Z,13.28
2023-05-06T19:24:36.244Z,13.23
2023-05-06T19:27:18.243Z,13.19
2023-05-06T19:30:05.297Z,13.13
2023-05-06T19:32:58.388Z,13.07
2023-05-06T19:35:46.257Z,12.99
2023-05-06T19:38:19.867Z,12.91
2023-05-06T19:41:06.240Z,12.87
2023-05-06T19:43:46.450Z,12.86
2023-05-06T19:46:40.394Z,12.80
2023-05-06T19:49:27.284Z,12.72
2023-05-06T19:52:02.441Z,12.68
2023-05-06T19:54:49.309Z,12.64
2023-05-06T19:57:29.296Z,12.61
2023-05-06T20:00:26.311Z,12.57
2023-05-06T20:03:13.643Z,12.56
2023-05-06T20:05:57.783Z,12.53
2023-05-06T20:08:46.116Z,12.50
2023-05-06T20:11:19.397Z,12.48
2023-05-06T20:14:06.304Z,12.47
2023-05-06T20:16:46.454Z,12.44
2023-05-06T20:19:40.305Z,12.41
2023-05-06T20:22:27.290Z,12.42
2023-05-06T20:25:25.287Z,12.42
2023-05-06T20:28:16.134Z,12.42
2023-05-06T20:30:49.454Z,12.39
2023-05-06T20:33:37.282Z,12.37
2023-05-06T20:36:18.307Z,12.37
2023-05-06T20:39:07.302Z,12.37
2023-05-06T20:41:47.315Z,12.33
2023-05-06T20:44:34.310Z,12.32
2023-05-06T20:47:12.396Z,12.31
2023-05-06T20:50:00.311Z,12.29
2023-05-06T20:52:48.348Z,12.26
2023-05-06T20:55:37.362Z,12.23
2023-05-06T20:58:17.266Z,12.21
2023-05-06T21:00:57.340Z,12.19
2023-05-06T21:03:38.315Z,12.18
2023-05-06T21:06:11.472Z,12.17
2023-05-06T21:09:01.301Z,12.12
2023-05-06T21:11:34.428Z,12.09
2023-05-06T21:14:24.344Z,12.10
2023-05-06T21:17:05.298Z,12.10
2023-05-06T21:19:52.311Z,12.06
2023-05-06T21:22:35.322Z,12.02
2023-05-06T21:25:29.317Z,11.99
2023-05-06T21:28:16.306Z,11.95
2023-05-06T21:30:49.473Z,11.93
2023-05-06T21:33:37.327Z,11.87
2023-05-06T21:36:18.306Z,11.83
2023-05-06T21:39:25.333Z,11.76
2023-05-06T21:42:12.305Z,11.69
2023-05-06T21:44:54.303Z,11.66
2023-05-06T21:47:41.344Z,11.60
2023-05-06T21:50:22.303Z,11.55
2023-05-06T21:53:18.301Z,11.52
2023-05-06T21:56:12.307Z,11.44
2023-05-06T21:59:00.352Z,11.41
2023-05-06T22:01:35.993Z,11.40
2023-05-06T22:04:24.397Z,11.38
2023-05-06T22:07:04.347Z,11.33
2023-05-06T22:09:58.350Z,11.31
2023-05-06T22:12:54.390Z,11.31
2023-05-06T22:15:41.442Z,11.29
2023-05-06T22:18:14.418Z,11.29
2023-05-06T22:21:03.453Z,11.26
2023-05-06T22:23:36.500Z,11.26
2023-05-06T22:26:23.351Z,11.26
2023-05-06T22:29:04.358Z,11.28
2023-05-06T22:31:58.431Z,11.29
2023-05-06T22:34:52.376Z,11.31
2023-05-06T22:37:39.409Z,11.32
2023-05-06T22:40:20.349Z,11.32
2023-05-06T22:43:14.356Z,11.33
2023-05-06T22:46:01.365Z,11.34
2023-05-06T22:48:34.695Z,11.37
2023-05-06T22:51:25.395Z,11.38
2023-05-06T22:53:58.417Z,11.40
2023-05-06T22:56:45.481Z,11.40
2023-05-06T22:59:18.466Z,11.41
2023-05-06T23:02:05.298Z,11.38
2023-05-06T23:04:39.019Z,11.39
2023-05-06T23:07:25.344Z,11.37
2023-05-06T23:10:06.406Z,11.34
2023-05-06T23:13:00.458Z,11.34
2023-05-06T23:15:47.331Z,11.33
2023-05-06T23:18:27.480Z,11.31
2023-05-06T23:21:21.364Z,11.28
2023-05-06T23:24:15.402Z,11.25
2023-05-06T23:27:02.434Z,11.22
2023-05-06T23:29:44.664Z,11.21
2023-05-06T23:32:38.379Z,11.18
2023-05-06T23:35:25.364Z,11.18
2023-05-06T23:38:05.365Z,11.19
2023-05-06T23:40:59.343Z,11.17
2023-05-06T23:43:46.408Z,11.15
2023-05-06T23:46:26.445Z,11.14
2023-05-06T23:49:22.658Z,11.09
2023-05-06T23:52:09.349Z,11.03
2023-05-06T23:54:49.380Z,10.99
2023-05-06T23:57:43.356Z,10.94
